»·PEaware :: COA1424 KIAH-MMMX

COA1424 :: KIAH-MMMX

FLIGHT INFORMATION

Flight Status: Arrived
Operator:
Continental Air Lines
More flights by this operator :: More flights under this callsign
Pilot: Robby H. (353)
Aircraft: BOEING 767-200
(B762)
More flights by this aircraft type
Origin: KIAH G Bush Intercontinental/Houst
United States
Destination: MMMX Lic Benito Juarez Intl
Mexico
More flights between these airports :: More routes between these airports
Route: DIRECT
File this flight plan on PilotEdge
Remarks: / V /
Altitude:
(Current/Filed)
34,000ft
Speed:
(Current/Filed)
532kts
Departed: 29-Dec-11 05:04 PM
Arrived: 29-Dec-11 06:48 PM
Distance/Time
Traveled:
665nm/1:43
Distance/Time
To Go:
Arrived

Flight Plot

Page will automatically refresh every two minutes.


Map Options




Map Legend


Flown Route
Filed Route
Departure Airport
Arrival Airport
Navaid (VOR, NDB)
Fix

Horizontal Profiles

Position Reports

Time Latitude Longitude Heading Altitude Ground
Speed
29-Dec-11 16:56 29.985550 -95.331607 269 109ft 0kts
29-Dec-11 16:57 29.985550 -95.331608 269 109ft 0kts
29-Dec-11 16:58 29.985550 -95.331585 269 109ft 1kts
29-Dec-11 16:59 29.985551 -95.330879 269 109ft 2kts
29-Dec-11 17:00 29.985552 -95.330733 269 109ft 0kts
29-Dec-11 17:01 29.981603 -95.333882 183 109ft 14kts
29-Dec-11 17:02 29.978859 -95.333932 179 109ft 11kts
29-Dec-11 17:03 29.977679 -95.318033 89 110ft 152kts
29-Dec-11 17:04 29.960070 -95.264120 165 1669ft 242kts
29-Dec-11 17:05 29.889869 -95.279830 195 3560ft 257kts
29-Dec-11 17:06 29.828193 -95.296523 195 5155ft 261kts
29-Dec-11 17:07 29.768861 -95.312578 195 6657ft 268kts
29-Dec-11 17:08 29.695078 -95.332509 196 8455ft 276kts
29-Dec-11 17:09 29.618586 -95.353147 196 10274ft 287kts
29-Dec-11 17:10 29.530402 -95.377140 195 11407ft 367kts
29-Dec-11 17:11 29.423254 -95.406074 195 12435ft 410kts
29-Dec-11 17:12 29.309579 -95.436447 195 13452ft 416kts
29-Dec-11 17:13 29.196829 -95.466488 195 14442ft 422kts
29-Dec-11 17:14 29.080755 -95.497400 195 15450ft 429kts
29-Dec-11 17:15 28.963971 -95.528520 195 16451ft 435kts
29-Dec-11 17:16 28.845382 -95.562223 204 17470ft 440kts
29-Dec-11 17:17 28.761009 -95.656716 235 18461ft 437kts
29-Dec-11 17:18 28.689356 -95.772108 235 19473ft 442kts
29-Dec-11 17:19 28.616023 -95.886139 235 20479ft 448kts
29-Dec-11 17:20 28.541593 -96.000685 235 21476ft 454kts
29-Dec-11 17:21 28.465657 -96.117077 235 22482ft 460kts
29-Dec-11 17:22 28.388538 -96.235135 235 23483ft 467kts
29-Dec-11 17:23 28.310070 -96.354826 235 24496ft 471kts
29-Dec-11 17:24 28.230870 -96.475271 235 25499ft 476kts
29-Dec-11 17:25 28.131291 -96.575515 216 26500ft 481kts
29-Dec-11 17:26 28.019002 -96.657423 216 27497ft 482kts
29-Dec-11 17:27 27.905763 -96.739253 216 28492ft 479kts
29-Dec-11 17:28 27.795318 -96.818821 217 29465ft 475kts
29-Dec-11 17:29 27.682799 -96.899759 216 30374ft 471kts
29-Dec-11 17:30 27.572269 -96.979100 216 31252ft 458kts
29-Dec-11 17:31 27.469709 -97.052320 217 32194ft 429kts
29-Dec-11 17:32 27.370049 -97.123423 218 33178ft 412kts
29-Dec-11 17:33 27.275748 -97.190481 219 34023ft 393kts
29-Dec-11 17:34 27.181685 -97.254919 213 33996ft 403kts
29-Dec-11 17:35 27.072945 -97.299035 197 34006ft 417kts
29-Dec-11 17:36 26.957321 -97.322399 189 34012ft 425kts
29-Dec-11 17:37 26.838969 -97.333123 191 34166ft 425kts
29-Dec-11 17:38 26.723081 -97.338941 183 34031ft 407kts
29-Dec-11 17:39 26.609845 -97.344257 191 34025ft 416kts
29-Dec-11 17:40 26.492600 -97.349630 190 34029ft 425kts
29-Dec-11 17:41 26.371846 -97.355136 190 34027ft 435kts
29-Dec-11 17:42 26.250131 -97.360585 190 34027ft 444kts
29-Dec-11 17:43 26.125503 -97.366269 190 34028ft 453kts
29-Dec-11 17:44 25.998128 -97.374393 199 34108ft 449kts
29-Dec-11 17:45 25.886188 -97.432212 218 34026ft 439kts
29-Dec-11 17:47 25.663315 -97.559970 207 34051ft 466kts
29-Dec-11 17:48 25.559938 -97.598688 204 34052ft 470kts
29-Dec-11 17:49 25.436922 -97.642027 204 34047ft 471kts
29-Dec-11 17:50 25.309542 -97.686886 204 34047ft 471kts
29-Dec-11 17:51 25.184725 -97.730742 204 34039ft 471kts
29-Dec-11 17:52 25.059466 -97.774660 204 34035ft 471kts
29-Dec-11 17:53 24.933409 -97.818850 204 34037ft 471kts
29-Dec-11 17:54 24.810322 -97.861864 204 34035ft 471kts
29-Dec-11 17:55 24.683789 -97.905959 203 34035ft 471kts
29-Dec-11 17:56 24.558481 -97.949522 203 34037ft 471kts
29-Dec-11 17:57 24.434792 -97.992507 203 34035ft 471kts
29-Dec-11 17:58 24.307804 -98.036449 203 34032ft 471kts
29-Dec-11 17:59 24.183285 -98.079552 203 34035ft 471kts
29-Dec-11 18:00 24.056927 -98.123201 203 34031ft 472kts
29-Dec-11 18:01 23.932707 -98.165930 203 34033ft 472kts
29-Dec-11 18:02 23.806720 -98.209217 203 34032ft 472kts
29-Dec-11 18:03 23.680923 -98.252389 203 34031ft 472kts
29-Dec-11 18:04 23.556125 -98.295094 203 34031ft 471kts
29-Dec-11 18:05 23.430006 -98.338251 202 34030ft 471kts
29-Dec-11 18:06 23.305078 -98.380805 202 34033ft 471kts
29-Dec-11 18:07 23.179928 -98.423382 202 34029ft 471kts
29-Dec-11 18:08 23.051680 -98.466916 202 34031ft 471kts
29-Dec-11 18:09 22.926315 -98.509337 202 34032ft 471kts
29-Dec-11 18:10 22.801300 -98.551588 202 34030ft 471kts
29-Dec-11 18:11 22.675964 -98.593816 202 34033ft 471kts
29-Dec-11 18:12 22.550939 -98.635954 202 34037ft 471kts
29-Dec-11 18:13 22.424145 -98.678500 202 34056ft 472kts
29-Dec-11 18:14 22.299130 -98.720398 202 34067ft 472kts
29-Dec-11 18:15 22.176102 -98.770507 202 34072ft 472kts
29-Dec-11 18:16 22.047571 -98.802808 194 34059ft 478kts
29-Dec-11 18:17 21.914668 -98.819855 190 34068ft 481kts
29-Dec-11 18:18 21.781239 -98.832878 189 34093ft 480kts
29-Dec-11 18:19 21.649378 -98.845846 189 34108ft 480kts
29-Dec-11 18:20 21.514377 -98.859144 189 34111ft 479kts
29-Dec-11 18:21 21.381713 -98.872187 189 34118ft 479kts
29-Dec-11 18:22 21.249172 -98.885141 189 34124ft 478kts
29-Dec-11 18:23 21.135728 -98.896332 188 33651ft 486kts
29-Dec-11 18:24 20.994254 -98.910295 188 31310ft 516kts
29-Dec-11 18:25 20.855802 -98.923544 188 28923ft 486kts
29-Dec-11 18:26 20.722623 -98.936246 187 26489ft 463kts
29-Dec-11 18:27 20.597816 -98.948167 187 24099ft 442kts
29-Dec-11 18:28 20.475152 -98.959921 187 21690ft 433kts
29-Dec-11 18:29 20.358410 -98.971079 186 19308ft 413kts
29-Dec-11 18:30 20.246355 -98.981801 185 16916ft 406kts
29-Dec-11 18:31 20.153198 -98.990687 185 14904ft 395kts
29-Dec-11 18:32 20.027129 -99.002641 185 14384ft 387kts
29-Dec-11 18:33 19.920471 -99.012828 185 14386ft 386kts
29-Dec-11 18:34 19.813267 -99.023076 185 14383ft 386kts
29-Dec-11 18:35 19.711139 -98.990241 153 14381ft 389kts
29-Dec-11 18:36 19.632624 -98.941948 148 14378ft 389kts
29-Dec-11 18:37 19.534479 -98.903042 191 14372ft 387kts
29-Dec-11 18:38 19.464093 -98.978796 247 14373ft 378kts
29-Dec-11 18:39 19.450309 -99.085394 293 14383ft 377kts
29-Dec-11 18:40 19.514770 -99.173248 327 14337ft 380kts
29-Dec-11 18:41 19.613978 -99.162776 37 14395ft 389kts
29-Dec-11 18:42 19.668801 -99.083788 87 12644ft 286kts
29-Dec-11 18:43 19.625310 -99.021955 166 11018ft 264kts
29-Dec-11 18:44 19.553885 -99.006235 169 9524ft 267kts
29-Dec-11 18:45 19.484429 -99.027163 201 8110ft 265kts
29-Dec-11 18:46 19.438999 -99.064296 240 7335ft 147kts
29-Dec-11 18:47 19.432672 -99.083605 319 7328ft 23kts

Navigation Log

Ident Type
Flight plan parsing failed, navigation log unavailable